sensor_id;sensor_type;location;lat;lon;timestamp;pressure;altitude;pressure_sealevel;temperature;humidity
86038;BME280;76634;47.732;7.348;2024-02-26T00:01:57;96111.53;;;5.83;81.29
86038;BME280;76634;47.732;7.348;2024-02-26T00:04:22;96084.13;;;5.49;81.83
86038;BME280;76634;47.732;7.348;2024-02-26T00:06:47;96128.66;;;5.85;81.44
86038;BME280;76634;47.732;7.348;2024-02-26T00:09:15;96146.22;;;6.04;80.40
86038;BME280;76634;47.732;7.348;2024-02-26T00:11:41;96083.25;;;5.50;81.75
86038;BME280;76634;47.732;7.348;2024-02-26T00:14:06;96147.69;;;5.52;81.43
86038;BME280;76634;47.732;7.348;2024-02-26T00:16:31;96123.63;;;5.51;81.74
86038;BME280;76634;47.732;7.348;2024-02-26T00:18:57;96126.50;;;5.70;80.68
86038;BME280;76634;47.732;7.348;2024-02-26T00:21:23;96135.91;;;5.73;80.33
86038;BME280;76634;47.732;7.348;2024-02-26T00:23:53;96153.50;;;5.89;80.46
86038;BME280;76634;47.732;7.348;2024-02-26T00:26:18;96142.09;;;5.67;78.38
86038;BME280;76634;47.732;7.348;2024-02-26T00:28:44;96117.25;;;5.63;79.79
86038;BME280;76634;47.732;7.348;2024-02-26T00:31:09;96097.47;;;5.63;79.93
86038;BME280;76634;47.732;7.348;2024-02-26T00:33:34;96066.44;;;5.37;80.69
86038;BME280;76634;47.732;7.348;2024-02-26T00:36:00;96124.84;;;5.69;80.92
86038;BME280;76634;47.732;7.348;2024-02-26T00:38:25;96101.78;;;5.63;80.19
86038;BME280;76634;47.732;7.348;2024-02-26T00:40:50;96113.72;;;5.67;79.76
86038;BME280;76634;47.732;7.348;2024-02-26T00:43:16;96093.88;;;5.69;79.50
86038;BME280;76634;47.732;7.348;2024-02-26T00:45:41;96124.88;;;5.67;80.07
86038;BME280;76634;47.732;7.348;2024-02-26T00:48:06;96099.44;;;5.55;80.59
86038;BME280;76634;47.732;7.348;2024-02-26T00:50:33;96119.53;;;5.74;78.96
86038;BME280;76634;47.732;7.348;2024-02-26T00:52:59;96063.72;;;5.41;79.23
86038;BME280;76634;47.732;7.348;2024-02-26T00:55:24;96104.56;;;5.25;78.88
86038;BME280;76634;47.732;7.348;2024-02-26T00:57:49;96110.66;;;5.23;80.14
86038;BME280;76634;47.732;7.348;2024-02-26T01:00:15;96051.25;;;4.95;78.46
86038;BME280;76634;47.732;7.348;2024-02-26T01:02:41;96122.72;;;5.21;78.76
86038;BME280;76634;47.732;7.348;2024-02-26T01:05:12;96082.41;;;5.18;77.46
86038;BME280;76634;47.732;7.348;2024-02-26T01:07:37;96109.88;;;5.19;78.15
86038;BME280;76634;47.732;7.348;2024-02-26T01:10:03;96069.97;;;5.01;78.38
86038;BME280;76634;47.732;7.348;2024-02-26T01:12:29;96118.88;;;5.36;76.76
86038;BME280;76634;47.732;7.348;2024-02-26T01:14:55;96015.28;;;4.57;77.14
86038;BME280;76634;47.732;7.348;2024-02-26T01:17:20;96098.16;;;5.08;75.79
86038;BME280;76634;47.732;7.348;2024-02-26T01:19:45;96050.50;;;4.57;78.44
86038;BME280;76634;47.732;7.348;2024-02-26T01:22:11;96058.69;;;4.73;78.17
86038;BME280;76634;47.732;7.348;2024-02-26T01:24:36;96118.75;;;5.09;78.99
86038;BME280;76634;47.732;7.348;2024-02-26T01:27:01;96126.88;;;5.26;80.09
86038;BME280;76634;47.732;7.348;2024-02-26T01:29:27;96100.47;;;5.18;79.17
86038;BME280;76634;47.732;7.348;2024-02-26T01:31:52;96125.84;;;5.34;77.45
86038;BME280;76634;47.732;7.348;2024-02-26T01:34:17;96136.22;;;5.31;76.69
86038;BME280;76634;47.732;7.348;2024-02-26T01:36:43;96137.66;;;5.08;77.70
86038;BME280;76634;47.732;7.348;2024-02-26T01:39:09;96136.69;;;5.12;79.28
86038;BME280;76634;47.732;7.348;2024-02-26T01:41:40;96135.41;;;5.29;80.23
86038;BME280;76634;47.732;7.348;2024-02-26T01:44:06;96124.94;;;5.35;77.86
86038;BME280;76634;47.732;7.348;2024-02-26T01:46:33;96078.22;;;5.14;78.22
86038;BME280;76634;47.732;7.348;2024-02-26T01:49:00;96097.28;;;5.40;77.89
86038;BME280;76634;47.732;7.348;2024-02-26T01:51:26;96022.22;;;4.88;79.83
86038;BME280;76634;47.732;7.348;2024-02-26T01:53:52;96046.69;;;5.04;79.41
86038;BME280;76634;47.732;7.348;2024-02-26T01:56:19;96065.09;;;5.22;79.23
86038;BME280;76634;47.732;7.348;2024-02-26T01:58:47;96094.38;;;5.21;79.05
86038;BME280;76634;47.732;7.348;2024-02-26T02:01:15;96058.13;;;4.94;79.47
86038;BME280;76634;47.732;7.348;2024-02-26T02:03:41;96094.53;;;5.15;80.57
86038;BME280;76634;47.732;7.348;2024-02-26T02:06:07;96089.47;;;5.12;80.67
86038;BME280;76634;47.732;7.348;2024-02-26T02:08:33;96066.28;;;5.10;80.72
86038;BME280;76634;47.732;7.348;2024-02-26T02:11:00;96021.59;;;4.78;80.67
86038;BME280;76634;47.732;7.348;2024-02-26T02:13:25;96012.47;;;4.67;80.67
86038;BME280;76634;47.732;7.348;2024-02-26T02:15:51;96059.38;;;4.79;81.32
86038;BME280;76634;47.732;7.348;2024-02-26T02:18:17;96133.59;;;5.32;81.42
86038;BME280;76634;47.732;7.348;2024-02-26T02:20:42;96126.84;;;5.28;81.07
86038;BME280;76634;47.732;7.348;2024-02-26T02:23:08;96146.38;;;5.37;81.30
86038;BME280;76634;47.732;7.348;2024-02-26T02:25:33;96144.59;;;5.39;81.18
86038;BME280;76634;47.732;7.348;2024-02-26T02:27:59;96138.75;;;5.32;80.51
86038;BME280;76634;47.732;7.348;2024-02-26T02:30:27;96147.91;;;5.44;80.52
86038;BME280;76634;47.732;7.348;2024-02-26T02:32:53;96141.34;;;5.32;80.73
86038;BME280;76634;47.732;7.348;2024-02-26T02:35:18;96110.25;;;5.05;80.79
86038;BME280;76634;47.732;7.348;2024-02-26T02:37:43;96102.97;;;4.89;81.00
86038;BME280;76634;47.732;7.348;2024-02-26T02:40:09;96157.19;;;5.18;80.95
86038;BME280;76634;47.732;7.348;2024-02-26T02:42:34;96157.88;;;5.25;81.47
86038;BME280;76634;47.732;7.348;2024-02-26T02:45:00;96117.28;;;4.99;81.63
86038;BME280;76634;47.732;7.348;2024-02-26T02:47:25;96143.38;;;5.19;81.58
86038;BME280;76634;47.732;7.348;2024-02-26T02:49:50;96151.13;;;5.19;81.68
86038;BME280;76634;47.732;7.348;2024-02-26T02:52:16;96163.50;;;5.39;81.23
86038;BME280;76634;47.732;7.348;2024-02-26T02:54:41;96151.94;;;5.21;81.63
86038;BME280;76634;47.732;7.348;2024-02-26T02:57:08;96149.34;;;5.21;81.75
86038;BME280;76634;47.732;7.348;2024-02-26T02:59:33;96116.56;;;4.94;81.51
86038;BME280;76634;47.732;7.348;2024-02-26T03:01:59;96122.66;;;4.91;82.19
86038;BME280;76634;47.732;7.348;2024-02-26T03:04:24;96153.56;;;5.24;81.78
86038;BME280;76634;47.732;7.348;2024-02-26T03:06:49;96145.34;;;5.11;81.97
86038;BME280;76634;47.732;7.348;2024-02-26T03:09:15;96154.75;;;5.12;82.13
86038;BME280;76634;47.732;7.348;2024-02-26T03:11:40;96187.34;;;5.15;81.66
86038;BME280;76634;47.732;7.348;2024-02-26T03:14:06;96136.53;;;4.86;81.37
86038;BME280;76634;47.732;7.348;2024-02-26T03:16:31;96165.28;;;5.03;81.98
86038;BME280;76634;47.732;7.348;2024-02-26T03:18:57;96111.78;;;4.78;81.43
86038;BME280;76634;47.732;7.348;2024-02-26T03:21:22;96151.47;;;5.05;81.74
86038;BME280;76634;47.732;7.348;2024-02-26T03:23:47;96096.75;;;4.63;81.15
86038;BME280;76634;47.732;7.348;2024-02-26T03:26:13;96152.44;;;5.01;81.04
86038;BME280;76634;47.732;7.348;2024-02-26T03:28:40;96165.28;;;5.04;81.81
86038;BME280;76634;47.732;7.348;2024-02-26T03:31:05;96155.78;;;5.07;81.45
86038;BME280;76634;47.732;7.348;2024-02-26T03:33:31;96150.75;;;5.00;81.37
86038;BME280;76634;47.732;7.348;2024-02-26T03:35:56;96143.16;;;4.94;81.50
86038;BME280;76634;47.732;7.348;2024-02-26T03:38:21;96143.50;;;4.82;82.05
86038;BME280;76634;47.732;7.348;2024-02-26T03:40:47;96146.19;;;4.77;82.48
86038;BME280;76634;47.732;7.348;2024-02-26T03:43:12;96150.72;;;4.68;83.47
86038;BME280;76634;47.732;7.348;2024-02-26T03:45:38;96121.38;;;4.73;83.24
86038;BME280;76634;47.732;7.348;2024-02-26T03:48:03;96155.25;;;4.92;82.76
86038;BME280;76634;47.732;7.348;2024-02-26T03:50:29;96064.78;;;4.36;82.61
86038;BME280;76634;47.732;7.348;2024-02-26T03:52:54;96157.16;;;4.86;83.37
86038;BME280;76634;47.732;7.348;2024-02-26T03:55:19;96140.81;;;4.85;82.74
86038;BME280;76634;47.732;7.348;2024-02-26T03:57:50;96126.47;;;4.76;83.06
86038;BME280;76634;47.732;7.348;2024-02-26T04:00:16;96101.16;;;4.58;83.06
86038;BME280;76634;47.732;7.348;2024-02-26T04:02:41;96114.53;;;4.72;83.30
86038;BME280;76634;47.732;7.348;2024-02-26T04:05:09;96090.84;;;4.58;83.19
86038;BME280;76634;47.732;7.348;2024-02-26T04:07:35;96107.63;;;4.74;83.00
86038;BME280;76634;47.732;7.348;2024-02-26T04:10:01;96106.97;;;4.65;83.11
86038;BME280;76634;47.732;7.348;2024-02-26T04:12:29;96101.06;;;4.61;83.00
86038;BME280;76634;47.732;7.348;2024-02-26T04:14:54;96122.09;;;4.78;83.38
86038;BME280;76634;47.732;7.348;2024-02-26T04:17:19;96133.72;;;4.95;83.28
86038;BME280;76634;47.732;7.348;2024-02-26T04:19:44;96093.25;;;4.64;83.37
86038;BME280;76634;47.732;7.348;2024-02-26T04:22:10;96067.00;;;4.50;83.05
86038;BME280;76634;47.732;7.348;2024-02-26T04:24:36;96119.56;;;4.77;83.49
86038;BME280;76634;47.732;7.348;2024-02-26T04:27:01;96052.72;;;4.38;83.45
86038;BME280;76634;47.732;7.348;2024-02-26T04:29:27;96103.41;;;4.70;83.30
86038;BME280;76634;47.732;7.348;2024-02-26T04:31:52;96099.44;;;4.58;83.59
86038;BME280;76634;47.732;7.348;2024-02-26T04:34:17;96079.09;;;4.46;84.28
86038;BME280;76634;47.732;7.348;2024-02-26T04:36:43;96128.00;;;4.83;83.98
86038;BME280;76634;47.732;7.348;2024-02-26T04:39:09;96042.50;;;4.35;84.12
86038;BME280;76634;47.732;7.348;2024-02-26T04:41:35;96123.47;;;4.92;84.18
86038;BME280;76634;47.732;7.348;2024-02-26T04:44:00;95763.72;;;2.63;83.89
86038;BME280;76634;47.732;7.348;2024-02-26T04:46:25;96140.13;;;4.78;84.47
86038;BME280;76634;47.732;7.348;2024-02-26T04:48:51;96130.59;;;4.82;84.70
86038;BME280;76634;47.732;7.348;2024-02-26T04:51:16;96144.44;;;4.78;84.16
86038;BME280;76634;47.732;7.348;2024-02-26T04:53:41;96088.75;;;4.38;85.22
86038;BME280;76634;47.732;7.348;2024-02-26T04:56:07;96152.16;;;4.79;85.33
86038;BME280;76634;47.732;7.348;2024-02-26T04:58:32;96136.00;;;4.73;84.64
86038;BME280;76634;47.732;7.348;2024-02-26T05:00:57;96115.28;;;4.76;84.05
86038;BME280;76634;47.732;7.348;2024-02-26T05:03:22;96137.88;;;5.00;83.75
86038;BME280;76634;47.732;7.348;2024-02-26T05:05:48;96127.59;;;4.99;83.36
86038;BME280;76634;47.732;7.348;2024-02-26T05:08:13;96091.00;;;4.52;83.50
86038;BME280;76634;47.732;7.348;2024-02-26T05:10:39;96146.63;;;4.95;83.90
86038;BME280;76634;47.732;7.348;2024-02-26T05:13:08;96154.91;;;5.06;83.45
86038;BME280;76634;47.732;7.348;2024-02-26T05:15:35;96046.72;;;4.37;83.23
86038;BME280;76634;47.732;7.348;2024-02-26T05:18:00;96147.19;;;4.72;84.33
86038;BME280;76634;47.732;7.348;2024-02-26T05:20:26;96126.72;;;4.66;83.94
86038;BME280;76634;47.732;7.348;2024-02-26T05:22:51;96148.53;;;4.87;83.96
86038;BME280;76634;47.732;7.348;2024-02-26T05:25:17;96170.47;;;5.01;84.23
86038;BME280;76634;47.732;7.348;2024-02-26T05:27:43;96164.06;;;4.83;84.47
86038;BME280;76634;47.732;7.348;2024-02-26T05:30:09;96162.59;;;4.73;85.23
86038;BME280;76634;47.732;7.348;2024-02-26T05:32:35;96128.09;;;4.45;85.33
86038;BME280;76634;47.732;7.348;2024-02-26T05:35:00;96145.94;;;4.51;85.92
86038;BME280;76634;47.732;7.348;2024-02-26T05:37:27;96099.66;;;4.49;85.99
86038;BME280;76634;47.732;7.348;2024-02-26T05:39:53;96145.69;;;4.97;85.76
86038;BME280;76634;47.732;7.348;2024-02-26T05:42:18;96138.44;;;4.79;85.36
86038;BME280;76634;47.732;7.348;2024-02-26T05:44:43;96143.84;;;5.02;84.93
86038;BME280;76634;47.732;7.348;2024-02-26T05:47:09;96146.84;;;4.86;84.50
86038;BME280;76634;47.732;7.348;2024-02-26T05:49:34;96145.06;;;4.88;84.86
86038;BME280;76634;47.732;7.348;2024-02-26T05:51:59;96102.25;;;4.82;83.87
86038;BME280;76634;47.732;7.348;2024-02-26T05:54:24;96159.88;;;5.14;83.92
86038;BME280;76634;47.732;7.348;2024-02-26T05:56:50;96128.38;;;5.02;83.35
86038;BME280;76634;47.732;7.348;2024-02-26T05:59:15;96139.38;;;5.09;83.08
86038;BME280;76634;47.732;7.348;2024-02-26T06:01:41;96139.03;;;4.89;83.00
86038;BME280;76634;47.732;7.348;2024-02-26T06:04:06;96120.31;;;4.82;83.22
86038;BME280;76634;47.732;7.348;2024-02-26T06:06:32;96118.38;;;4.90;83.69
86038;BME280;76634;47.732;7.348;2024-02-26T06:08:57;96110.56;;;4.93;83.28
86038;BME280;76634;47.732;7.348;2024-02-26T06:11:23;96134.59;;;5.26;83.11
86038;BME280;76634;47.732;7.348;2024-02-26T06:13:48;96123.00;;;5.10;83.07
86038;BME280;76634;47.732;7.348;2024-02-26T06:16:13;96131.69;;;5.06;83.55
86038;BME280;76634;47.732;7.348;2024-02-26T06:18:39;96135.78;;;5.15;83.82
86038;BME280;76634;47.732;7.348;2024-02-26T06:21:04;96106.81;;;5.05;83.72
86038;BME280;76634;47.732;7.348;2024-02-26T06:23:29;96074.63;;;4.87;83.10
86038;BME280;76634;47.732;7.348;2024-02-26T06:25:55;96142.06;;;5.37;83.02
86038;BME280;76634;47.732;7.348;2024-02-26T06:28:20;96075.69;;;4.80;82.99
86038;BME280;76634;47.732;7.348;2024-02-26T06:30:46;96030.97;;;4.50;82.82
86038;BME280;76634;47.732;7.348;2024-02-26T06:33:11;96152.31;;;5.06;83.83
86038;BME280;76634;47.732;7.348;2024-02-26T06:35:37;96155.44;;;5.19;83.63
86038;BME280;76634;47.732;7.348;2024-02-26T06:38:03;96122.88;;;5.15;83.11
86038;BME280;76634;47.732;7.348;2024-02-26T06:40:29;96152.59;;;5.30;83.53
86038;BME280;76634;47.732;7.348;2024-02-26T06:42:55;96153.41;;;5.32;83.52
86038;BME280;76634;47.732;7.348;2024-02-26T06:45:21;96132.47;;;5.10;83.63
86038;BME280;76634;47.732;7.348;2024-02-26T06:47:46;96037.75;;;4.52;83.56
86038;BME280;76634;47.732;7.348;2024-02-26T06:50:12;96169.75;;;5.31;83.02
86038;BME280;76634;47.732;7.348;2024-02-26T06:52:37;96168.06;;;5.30;83.29
86038;BME280;76634;47.732;7.348;2024-02-26T06:55:02;96177.16;;;5.43;82.38
86038;BME280;76634;47.732;7.348;2024-02-26T06:57:28;96119.63;;;5.08;82.09
86038;BME280;76634;47.732;7.348;2024-02-26T06:59:53;96155.03;;;5.34;82.78
86038;BME280;76634;47.732;7.348;2024-02-26T07:02:18;96184.44;;;5.60;82.39
86038;BME280;76634;47.732;7.348;2024-02-26T07:04:44;96128.66;;;5.24;82.24
86038;BME280;76634;47.732;7.348;2024-02-26T07:07:09;96131.25;;;5.24;82.74
86038;BME280;76634;47.732;7.348;2024-02-26T07:09:36;96078.16;;;4.83;82.78
86038;BME280;76634;47.732;7.348;2024-02-26T07:12:01;96169.97;;;5.21;83.53
86038;BME280;76634;47.732;7.348;2024-02-26T07:14:27;96147.44;;;5.30;82.25
86038;BME280;76634;47.732;7.348;2024-02-26T07:16:52;96203.72;;;5.46;82.32
86038;BME280;76634;47.732;7.348;2024-02-26T07:19:18;96167.47;;;5.51;82.70
86038;BME280;76634;47.732;7.348;2024-02-26T07:21:43;96132.91;;;5.25;83.25
86038;BME280;76634;47.732;7.348;2024-02-26T07:24:08;96180.22;;;5.57;83.17
86038;BME280;76634;47.732;7.348;2024-02-26T07:26:34;96193.31;;;5.50;83.06
86038;BME280;76634;47.732;7.348;2024-02-26T07:28:59;96168.53;;;5.44;82.90
86038;BME280;76634;47.732;7.348;2024-02-26T07:31:25;96209.88;;;5.74;82.63
86038;BME280;76634;47.732;7.348;2024-02-26T07:33:51;96183.91;;;5.47;83.36
86038;BME280;76634;47.732;7.348;2024-02-26T07:36:16;96133.63;;;5.31;82.24
86038;BME280;76634;47.732;7.348;2024-02-26T07:38:42;96124.56;;;5.49;83.08
86038;BME280;76634;47.732;7.348;2024-02-26T07:41:07;96187.25;;;6.13;81.65
86038;BME280;76634;47.732;7.348;2024-02-26T07:43:33;96209.31;;;6.53;81.23
86038;BME280;76634;47.732;7.348;2024-02-26T07:45:58;96181.13;;;6.45;80.94
86038;BME280;76634;47.732;7.348;2024-02-26T07:48:24;96166.06;;;6.32;80.60
86038;BME280;76634;47.732;7.348;2024-02-26T07:50:49;96208.59;;;6.48;78.98
86038;BME280;76634;47.732;7.348;2024-02-26T07:53:15;96213.44;;;6.60;78.89
86038;BME280;76634;47.732;7.348;2024-02-26T07:55:40;96203.19;;;6.27;79.99
86038;BME280;76634;47.732;7.348;2024-02-26T07:58:05;96214.16;;;6.36;79.50
86038;BME280;76634;47.732;7.348;2024-02-26T08:00:31;96208.34;;;6.27;80.30
86038;BME280;76634;47.732;7.348;2024-02-26T08:02:56;96213.50;;;6.29;81.51
86038;BME280;76634;47.732;7.348;2024-02-26T08:05:22;96209.03;;;6.34;79.25
86038;BME280;76634;47.732;7.348;2024-02-26T08:07:47;96219.50;;;6.29;80.76
86038;BME280;76634;47.732;7.348;2024-02-26T08:10:12;96170.09;;;6.12;80.78
86038;BME280;76634;47.732;7.348;2024-02-26T08:12:38;96227.25;;;6.58;77.86
86038;BME280;76634;47.732;7.348;2024-02-26T08:15:04;96208.59;;;6.48;77.72
86038;BME280;76634;47.732;7.348;2024-02-26T08:17:30;96044.22;;;5.31;80.76
86038;BME280;76634;47.732;7.348;2024-02-26T08:19:55;96223.28;;;6.47;80.51
86038;BME280;76634;47.732;7.348;2024-02-26T08:22:22;96229.94;;;6.55;78.03
86038;BME280;76634;47.732;7.348;2024-02-26T08:24:47;96202.88;;;6.66;77.50
86038;BME280;76634;47.732;7.348;2024-02-26T08:27:12;96179.19;;;6.54;77.86
86038;BME280;76634;47.732;7.348;2024-02-26T08:29:38;96223.88;;;6.84;77.67
86038;BME280;76634;47.732;7.348;2024-02-26T08:32:03;96229.19;;;6.79;79.27
86038;BME280;76634;47.732;7.348;2024-02-26T08:34:29;96218.72;;;6.84;77.93
86038;BME280;76634;47.732;7.348;2024-02-26T08:36:54;96187.44;;;6.65;78.81
86038;BME280;76634;47.732;7.348;2024-02-26T08:39:19;96232.09;;;6.97;79.05
86038;BME280;76634;47.732;7.348;2024-02-26T08:41:45;96225.16;;;6.70;79.40
86038;BME280;76634;47.732;7.348;2024-02-26T08:44:11;96198.09;;;6.54;79.49
86038;BME280;76634;47.732;7.348;2024-02-26T08:46:37;96229.09;;;6.54;80.17
86038;BME280;76634;47.732;7.348;2024-02-26T08:49:02;96174.59;;;6.62;79.24
86038;BME280;76634;47.732;7.348;2024-02-26T08:51:28;96205.81;;;6.82;78.63
86038;BME280;76634;47.732;7.348;2024-02-26T08:53:53;96246.56;;;7.02;78.67
86038;BME280;76634;47.732;7.348;2024-02-26T08:56:19;96199.81;;;6.82;78.18
86038;BME280;76634;47.732;7.348;2024-02-26T08:58:46;96238.63;;;6.80;79.60
86038;BME280;76634;47.732;7.348;2024-02-26T09:01:14;96236.47;;;6.66;80.88
86038;BME280;76634;47.732;7.348;2024-02-26T09:03:39;96165.59;;;6.47;80.73
86038;BME280;76634;47.732;7.348;2024-02-26T09:06:05;96164.25;;;6.62;79.83
86038;BME280;76634;47.732;7.348;2024-02-26T09:08:32;96250.25;;;7.22;80.03
86038;BME280;76634;47.732;7.348;2024-02-26T09:10:57;96249.75;;;7.37;78.76
86038;BME280;76634;47.732;7.348;2024-02-26T09:13:22;96253.19;;;7.38;79.13
86038;BME280;76634;47.732;7.348;2024-02-26T09:15:48;96192.59;;;7.18;79.16
86038;BME280;76634;47.732;7.348;2024-02-26T09:18:14;96238.44;;;7.40;78.95
86038;BME280;76634;47.732;7.348;2024-02-26T09:20:40;96261.31;;;7.52;79.29
86038;BME280;76634;47.732;7.348;2024-02-26T09:23:05;96277.78;;;7.49;80.10
86038;BME280;76634;47.732;7.348;2024-02-26T09:25:30;96276.50;;;7.36;81.09
86038;BME280;76634;47.732;7.348;2024-02-26T09:27:56;96274.31;;;7.50;80.74
86038;BME280;76634;47.732;7.348;2024-02-26T09:30:21;96278.41;;;7.57;80.73
86038;BME280;76634;47.732;7.348;2024-02-26T09:32:47;96263.34;;;7.69;80.71
86038;BME280;76634;47.732;7.348;2024-02-26T09:35:13;96282.44;;;7.91;79.31
86038;BME280;76634;47.732;7.348;2024-02-26T09:37:38;96287.19;;;7.78;79.65
86038;BME280;76634;47.732;7.348;2024-02-26T09:40:04;96247.69;;;7.72;80.14
86038;BME280;76634;47.732;7.348;2024-02-26T09:42:31;96254.09;;;7.62;80.52
86038;BME280;76634;47.732;7.348;2024-02-26T09:45:00;96294.91;;;7.80;80.54
86038;BME280;76634;47.732;7.348;2024-02-26T09:47:28;96265.22;;;7.89;79.82
86038;BME280;76634;47.732;7.348;2024-02-26T09:49:56;96275.78;;;8.33;79.43
86038;BME280;76634;47.732;7.348;2024-02-26T09:52:23;96285.97;;;9.07;79.12
86038;BME280;76634;47.732;7.348;2024-02-26T09:54:49;96267.31;;;8.97;76.27
86038;BME280;76634;47.732;7.348;2024-02-26T09:57:16;96260.63;;;8.91;75.83
86038;BME280;76634;47.732;7.348;2024-02-26T09:59:43;96283.78;;;8.96;76.12
86038;BME280;76634;47.732;7.348;2024-02-26T10:02:13;96296.19;;;9.11;76.75
86038;BME280;76634;47.732;7.348;2024-02-26T10:04:39;96291.09;;;8.86;76.73
86038;BME280;76634;47.732;7.348;2024-02-26T10:07:10;96263.81;;;9.20;75.56
86038;BME280;76634;47.732;7.348;2024-02-26T10:09:35;96278.41;;;9.44;74.90
86038;BME280;76634;47.732;7.348;2024-02-26T10:12:01;96296.03;;;8.92;76.27
86038;BME280;76634;47.732;7.348;2024-02-26T10:14:26;96208.28;;;8.12;76.66
86038;BME280;76634;47.732;7.348;2024-02-26T10:16:52;96253.91;;;8.64;76.90
86038;BME280;76634;47.732;7.348;2024-02-26T10:19:27;96317.66;;;8.69;77.30
86038;BME280;76634;47.732;7.348;2024-02-26T10:21:57;96303.31;;;8.60;78.13
86038;BME280;76634;47.732;7.348;2024-02-26T10:24:27;96309.88;;;8.93;76.72
86038;BME280;76634;47.732;7.348;2024-02-26T10:26:54;96300.38;;;8.92;77.05
86038;BME280;76634;47.732;7.348;2024-02-26T10:29:20;96295.97;;;9.38;74.75
86038;BME280;76634;47.732;7.348;2024-02-26T10:31:48;96310.84;;;9.34;74.39
86038;BME280;76634;47.732;7.348;2024-02-26T10:34:15;96321.75;;;9.20;75.83
86038;BME280;76634;47.732;7.348;2024-02-26T10:36:41;96334.34;;;9.94;73.34
86038;BME280;76634;47.732;7.348;2024-02-26T10:39:07;96332.78;;;9.90;73.56
86038;BME280;76634;47.732;7.348;2024-02-26T10:41:33;96316.47;;;10.07;73.36
86038;BME280;76634;47.732;7.348;2024-02-26T10:43:59;96311.03;;;10.13;72.20
86038;BME280;76634;47.732;7.348;2024-02-26T10:46:25;96312.97;;;10.68;70.23
86038;BME280;76634;47.732;7.348;2024-02-26T10:48:51;96344.91;;;11.09;68.52
86038;BME280;76634;47.732;7.348;2024-02-26T10:51:25;96292.66;;;11.31;68.92
86038;BME280;76634;47.732;7.348;2024-02-26T10:53:55;96333.03;;;11.40;66.61
86038;BME280;76634;47.732;7.348;2024-02-26T10:56:24;96319.22;;;11.02;68.29
86038;BME280;76634;47.732;7.348;2024-02-26T10:58:52;96353.50;;;10.53;69.55
86038;BME280;76634;47.732;7.348;2024-02-26T11:01:18;96326.41;;;10.78;68.29
86038;BME280;76634;47.732;7.348;2024-02-26T11:03:45;96318.47;;;11.00;68.64
86038;BME280;76634;47.732;7.348;2024-02-26T11:06:12;96290.59;;;11.38;66.62
86038;BME280;76634;47.732;7.348;2024-02-26T11:08:38;96302.16;;;11.32;66.32
86038;BME280;76634;47.732;7.348;2024-02-26T11:11:04;96304.75;;;12.21;65.66
86038;BME280;76634;47.732;7.348;2024-02-26T11:13:30;96349.94;;;13.04;63.54
86038;BME280;76634;47.732;7.348;2024-02-26T11:15:56;96332.91;;;13.46;59.64
86038;BME280;76634;47.732;7.348;2024-02-26T11:18:26;96313.44;;;13.66;59.32
86038;BME280;76634;47.732;7.348;2024-02-26T11:20:54;96364.72;;;13.21;60.26
86038;BME280;76634;47.732;7.348;2024-02-26T11:23:22;96320.47;;;12.53;61.77
86038;BME280;76634;47.732;7.348;2024-02-26T11:25:49;96347.28;;;12.39;62.61
86038;BME280;76634;47.732;7.348;2024-02-26T11:28:18;96333.22;;;13.40;60.36
86038;BME280;76634;47.732;7.348;2024-02-26T11:30:47;96350.13;;;14.11;58.51
86038;BME280;76634;47.732;7.348;2024-02-26T11:33:15;96360.69;;;13.31;60.04
86038;BME280;76634;47.732;7.348;2024-02-26T11:35:40;96345.19;;;12.63;62.16
86038;BME280;76634;47.732;7.348;2024-02-26T11:38:06;96315.13;;;11.51;63.76
86038;BME280;76634;47.732;7.348;2024-02-26T11:40:33;96325.53;;;12.05;64.18
86038;BME280;76634;47.732;7.348;2024-02-26T11:42:59;96313.91;;;11.59;64.77
86038;BME280;76634;47.732;7.348;2024-02-26T11:48:16;96351.22;;;12.30;61.47
86038;BME280;76634;47.732;7.348;2024-02-26T11:50:49;96343.31;;;12.32;62.80
86038;BME280;76634;47.732;7.348;2024-02-26T11:53:25;96346.38;;;12.05;63.98
86038;BME280;76634;47.732;7.348;2024-02-26T11:59:09;96330.94;;;11.48;65.50
86038;BME280;76634;47.732;7.348;2024-02-26T12:04:11;96285.56;;;11.52;62.00
86038;BME280;76634;47.732;7.348;2024-02-26T12:06:45;96296.44;;;10.69;65.46
86038;BME280;76634;47.732;7.348;2024-02-26T12:09:11;96317.22;;;10.31;66.81
86038;BME280;76634;47.732;7.348;2024-02-26T12:11:38;96347.22;;;11.34;63.41
86038;BME280;76634;47.732;7.348;2024-02-26T12:14:05;96354.16;;;11.89;62.08
86038;BME280;76634;47.732;7.348;2024-02-26T12:19:06;96280.94;;;11.04;63.17
86038;BME280;76634;47.732;7.348;2024-02-26T12:21:36;96343.72;;;10.98;65.03
86038;BME280;76634;47.732;7.348;2024-02-26T12:24:12;96329.84;;;12.06;63.28
86038;BME280;76634;47.732;7.348;2024-02-26T12:26:39;96355.75;;;12.60;61.47
86038;BME280;76634;47.732;7.348;2024-02-26T12:29:05;96361.50;;;12.67;60.45
86038;BME280;76634;47.732;7.348;2024-02-26T12:31:34;96346.75;;;12.32;61.07
86038;BME280;76634;47.732;7.348;2024-02-26T12:34:02;96348.50;;;12.83;58.89
86038;BME280;76634;47.732;7.348;2024-02-26T12:36:28;96346.44;;;12.72;60.91
86038;BME280;76634;47.732;7.348;2024-02-26T12:38:53;96291.31;;;12.78;59.28
86038;BME280;76634;47.732;7.348;2024-02-26T12:41:19;96354.00;;;12.60;60.46
86038;BME280;76634;47.732;7.348;2024-02-26T12:43:45;96258.53;;;12.41;58.33
86038;BME280;76634;47.732;7.348;2024-02-26T12:46:11;96232.09;;;12.47;57.93
86038;BME280;76634;47.732;7.348;2024-02-26T12:48:38;96279.19;;;12.28;59.97
86038;BME280;76634;47.732;7.348;2024-02-26T12:51:04;96301.63;;;13.29;57.46
86038;BME280;76634;47.732;7.348;2024-02-26T12:53:30;96318.44;;;12.91;56.40
86038;BME280;76634;47.732;7.348;2024-02-26T12:55:55;96284.34;;;14.02;55.50
86038;BME280;76634;47.732;7.348;2024-02-26T12:58:22;96318.88;;;14.52;52.52
86038;BME280;76634;47.732;7.348;2024-02-26T13:00:51;96299.75;;;14.66;51.78
86038;BME280;76634;47.732;7.348;2024-02-26T13:03:17;96324.44;;;14.62;50.42
86038;BME280;76634;47.732;7.348;2024-02-26T13:05:44;96311.19;;;15.06;49.21
86038;BME280;76634;47.732;7.348;2024-02-26T13:08:10;96320.09;;;18.00;43.43
86038;BME280;76634;47.732;7.348;2024-02-26T13:10:42;96294.78;;;18.33;42.56
86038;BME280;76634;47.732;7.348;2024-02-26T13:13:07;96322.13;;;17.59;44.13
86038;BME280;76634;47.732;7.348;2024-02-26T13:15:33;96287.69;;;17.99;41.10